createdAt,value
2022-08-01T00:03:34.095Z,27.70
2022-08-01T00:08:40.355Z,27.90
2022-08-01T00:13:46.412Z,28.00
2022-08-01T00:18:53.981Z,28.00
2022-08-01T00:24:01.902Z,28.10
2022-08-01T00:29:11.596Z,28.20
2022-08-01T00:34:34.769Z,28.40
2022-08-01T00:39:40.965Z,28.50
2022-08-01T00:44:47.620Z,28.90
2022-08-01T00:49:54.120Z,29.10
2022-08-01T00:55:00.519Z,29.40
2022-08-01T01:00:09.710Z,29.60
2022-08-01T01:05:16.023Z,30.40
2022-08-01T01:10:54.172Z,30.90
2022-08-01T01:16:04.710Z,31.30
2022-08-01T01:21:24.752Z,31.50
2022-08-01T01:26:49.971Z,31.70
2022-08-01T01:31:59.571Z,32.00
2022-08-01T01:37:10.008Z,32.40
2022-08-01T01:42:18.319Z,32.30
2022-08-01T01:47:26.921Z,32.30
2022-08-01T01:52:34.975Z,32.60
2022-08-01T01:57:44.650Z,32.40
2022-08-01T02:02:52.122Z,32.60
2022-08-01T02:08:00.396Z,32.40
2022-08-01T02:13:09.222Z,32.10
2022-08-01T02:18:15.759Z,33.00
2022-08-01T02:23:24.345Z,33.70
2022-08-01T02:28:38.204Z,34.20
2022-08-01T02:33:55.196Z,34.60
2022-08-01T02:39:04.260Z,34.90
2022-08-01T02:44:12.919Z,35.00
2022-08-01T02:49:21.949Z,35.10
2022-08-01T02:54:28.990Z,35.00
2022-08-01T02:59:37.408Z,35.20
2022-08-01T03:04:47.471Z,34.80
2022-08-01T03:09:57.168Z,34.90
2022-08-01T03:15:05.587Z,35.10
2022-08-01T03:20:15.042Z,34.50
2022-08-01T03:25:23.253Z,34.30
2022-08-01T03:30:31.081Z,34.90
2022-08-01T03:35:56.536Z,35.40
2022-08-01T03:41:19.183Z,35.60
2022-08-01T03:46:36.643Z,35.80
2022-08-01T03:51:43.779Z,36.00
2022-08-01T03:56:52.418Z,35.70
2022-08-01T04:01:58.944Z,36.00
2022-08-01T04:07:10.392Z,35.90
2022-08-01T04:12:18.506Z,36.10
2022-08-01T04:17:24.752Z,36.00
2022-08-01T04:22:37.424Z,36.30
2022-08-01T04:27:48.475Z,36.40
2022-08-01T04:33:00.005Z,36.60
2022-08-01T04:38:07.561Z,36.20
2022-08-01T04:43:15.082Z,35.60
2022-08-01T04:48:23.328Z,34.90
2022-08-01T04:53:32.852Z,34.90
2022-08-01T04:58:39.028Z,34.90
2022-08-01T05:03:45.683Z,35.70
2022-08-01T05:08:52.470Z,36.50
2022-08-01T05:13:58.594Z,35.60
2022-08-01T05:19:05.262Z,34.90
2022-08-01T05:24:15.624Z,35.70
2022-08-01T05:29:22.888Z,37.40
2022-08-01T05:34:30.282Z,40.20
2022-08-01T05:39:36.496Z,40.80
2022-08-01T05:44:42.394Z,40.30
2022-08-01T05:49:49.337Z,41.30
2022-08-01T05:54:55.492Z,42.80
2022-08-01T06:00:01.372Z,43.70
2022-08-01T06:05:16.585Z,44.50
2022-08-01T06:10:22.908Z,43.60
2022-08-01T06:15:29.275Z,41.30
2022-08-01T06:20:35.409Z,41.10
2022-08-01T06:25:41.967Z,43.20
2022-08-01T06:30:48.347Z,43.60
2022-08-01T06:35:54.537Z,45.70
2022-08-01T06:41:00.704Z,46.00
2022-08-01T06:46:10.249Z,45.70
2022-08-01T06:51:22.751Z,46.10
2022-08-01T06:56:30.975Z,46.00
2022-08-01T07:01:40.061Z,45.90
2022-08-01T07:06:46.297Z,44.10
2022-08-01T07:11:53.288Z,39.90
2022-08-01T07:16:59.888Z,35.60
2022-08-01T07:22:06.422Z,32.90
2022-08-01T07:27:24.077Z,30.90
2022-08-01T07:32:38.269Z,27.80
2022-08-01T07:37:49.154Z,26.30
2022-08-01T07:42:55.671Z,25.70
2022-08-01T07:48:09.829Z,25.50
2022-08-01T07:53:15.930Z,25.30
2022-08-01T07:58:22.010Z,25.60
2022-08-01T08:03:29.306Z,25.90
2022-08-01T08:08:37.365Z,26.10
2022-08-01T08:13:43.390Z,26.00
2022-08-01T08:18:49.480Z,25.90
2022-08-01T08:24:15.473Z,26.20
2022-08-01T08:29:51.493Z,26.20
2022-08-01T08:35:00.627Z,26.20
2022-08-01T08:40:09.611Z,26.40
2022-08-01T08:45:15.781Z,27.40
2022-08-01T08:50:25.276Z,28.30
2022-08-01T08:55:33.760Z,29.00
2022-08-01T09:00:59.791Z,29.40
2022-08-01T09:06:22.536Z,29.70
2022-08-01T09:11:30.018Z,29.70
2022-08-01T09:16:37.644Z,29.70
2022-08-01T09:22:02.906Z,29.80
2022-08-01T09:27:22.963Z,29.80
2022-08-01T09:32:34.283Z,29.80
2022-08-01T09:37:47.192Z,29.90
2022-08-01T09:43:15.057Z,29.80
2022-08-01T09:48:27.801Z,29.90
2022-08-01T09:53:53.438Z,29.80
2022-08-01T09:59:03.006Z,29.70
2022-08-01T10:04:24.039Z,29.60
2022-08-01T10:09:40.600Z,29.60
2022-08-01T10:14:50.299Z,29.50
2022-08-01T10:19:58.151Z,29.40
2022-08-01T10:25:08.012Z,29.30
2022-08-01T10:30:23.093Z,29.20
2022-08-01T10:35:46.694Z,29.10
2022-08-01T10:40:56.077Z,29.00
2022-08-01T10:46:03.254Z,28.90
2022-08-01T10:51:18.363Z,28.80
2022-08-01T10:56:41.562Z,28.70
2022-08-01T11:02:05.846Z,28.70
2022-08-01T11:07:25.773Z,28.60
2022-08-01T11:12:45.703Z,28.60
2022-08-01T11:17:54.814Z,28.50
2022-08-01T11:23:04.111Z,28.50
2022-08-01T11:28:32.676Z,28.50
2022-08-01T11:33:45.958Z,28.40
2022-08-01T11:39:15.997Z,28.40
2022-08-01T11:44:31.022Z,28.40
2022-08-01T11:49:50.293Z,28.40
2022-08-01T11:55:09.967Z,28.40
2022-08-01T12:00:20.392Z,28.50
2022-08-01T12:05:26.518Z,28.60
2022-08-01T12:10:47.204Z,28.50
2022-08-01T12:15:57.143Z,28.40
2022-08-01T12:21:07.672Z,28.30
2022-08-01T12:26:28.349Z,28.30
2022-08-01T12:31:38.040Z,28.40
2022-08-01T12:36:45.198Z,28.50
2022-08-01T12:41:51.536Z,28.40
2022-08-01T12:46:57.914Z,28.40
2022-08-01T12:52:06.078Z,28.40
2022-08-01T12:57:26.845Z,28.40
2022-08-01T13:02:37.338Z,28.40
2022-08-01T13:07:53.839Z,28.40
2022-08-01T13:13:03.485Z,28.40
2022-08-01T13:18:33.018Z,28.30
2022-08-01T13:24:01.715Z,28.20
2022-08-01T13:29:32.942Z,28.10
2022-08-01T13:34:39.993Z,28.20
2022-08-01T13:39:50.045Z,28.20
2022-08-01T13:44:56.220Z,28.20
2022-08-01T13:50:05.149Z,28.20
2022-08-01T13:55:12.035Z,28.10
2022-08-01T14:00:25.519Z,28.10
2022-08-01T14:05:31.653Z,28.10
2022-08-01T14:10:38.502Z,28.10
2022-08-01T14:15:45.966Z,28.10
2022-08-01T14:20:53.734Z,28.00
2022-08-01T14:26:09.821Z,28.00
2022-08-01T14:31:18.080Z,28.00
2022-08-01T14:36:29.429Z,28.00
2022-08-01T14:41:37.847Z,28.00
2022-08-01T14:46:58.055Z,28.00
2022-08-01T14:52:05.404Z,28.00
2022-08-01T14:57:11.904Z,28.10
2022-08-01T15:02:19.809Z,28.10
2022-08-01T15:07:26.284Z,28.10
2022-08-01T15:20:00.980Z,28.10
2022-08-01T15:25:07.631Z,28.10
2022-08-01T15:30:14.023Z,28.10
2022-08-01T15:35:20.453Z,28.10
2022-08-01T15:40:41.093Z,28.10
2022-08-01T15:45:48.751Z,28.10
2022-08-01T15:50:55.737Z,28.00
2022-08-01T15:56:02.025Z,28.00
2022-08-01T16:01:11.370Z,28.10
2022-08-01T16:06:17.712Z,28.10
2022-08-01T16:11:25.680Z,28.10
2022-08-01T16:16:31.770Z,28.10
2022-08-01T16:21:38.657Z,28.10
2022-08-01T16:26:44.905Z,28.10
2022-08-01T16:32:28.317Z,28.10
2022-08-01T16:37:17.389Z,28.10
2022-08-01T16:42:23.230Z,28.10
2022-08-01T16:47:33.419Z,28.10
2022-08-01T16:52:42.158Z,28.10
2022-08-01T16:57:48.620Z,28.10
2022-08-01T17:02:54.725Z,28.10
2022-08-01T17:08:00.645Z,28.10
2022-08-01T17:13:07.474Z,28.10
2022-08-01T17:18:15.685Z,28.00
2022-08-01T17:23:21.683Z,28.10
2022-08-01T17:28:31.476Z,28.00
2022-08-01T17:33:44.748Z,28.00
2022-08-01T17:38:52.987Z,28.10
2022-08-01T17:43:59.569Z,28.10
2022-08-01T17:49:08.094Z,28.10
2022-08-01T17:54:15.632Z,28.00
2022-08-01T17:59:21.363Z,28.00
2022-08-01T18:04:27.337Z,28.00
2022-08-01T18:09:36.536Z,28.00
2022-08-01T18:14:50.191Z,28.00
2022-08-01T18:19:56.219Z,27.90
2022-08-01T18:25:08.590Z,27.90
2022-08-01T18:30:15.206Z,27.80
2022-08-01T18:35:21.757Z,27.80
2022-08-01T18:40:30.918Z,27.70
2022-08-01T18:45:42.280Z,27.70
2022-08-01T18:50:48.526Z,27.60
2022-08-01T18:55:55.118Z,27.60
2022-08-01T19:01:00.858Z,27.60
2022-08-01T19:06:07.311Z,27.60
2022-08-01T19:11:13.608Z,27.60
2022-08-01T19:16:19.868Z,27.70
2022-08-01T19:21:26.386Z,27.70
2022-08-01T19:26:36.043Z,27.70
2022-08-01T19:31:46.998Z,27.50
2022-08-01T19:36:58.464Z,27.20
2022-08-01T19:42:05.816Z,27.10
2022-08-01T19:47:12.049Z,27.10
2022-08-01T19:52:22.128Z,27.10
2022-08-01T19:57:44.599Z,27.00
2022-08-01T20:02:56.437Z,27.00
2022-08-01T20:08:02.411Z,26.80
2022-08-01T20:13:12.539Z,26.90
2022-08-01T20:18:18.365Z,26.90
2022-08-01T20:23:26.713Z,26.90
2022-08-01T20:28:32.871Z,27.00
2022-08-01T20:33:44.245Z,27.00
2022-08-01T20:38:50.890Z,27.10
2022-08-01T20:43:59.667Z,27.10
2022-08-01T20:49:06.530Z,27.10
2022-08-01T20:54:12.508Z,27.20
2022-08-01T20:59:40.016Z,27.30
2022-08-01T21:05:13.770Z,27.40
2022-08-01T21:10:22.230Z,27.30
2022-08-01T21:15:37.147Z,27.30
2022-08-01T21:21:10.081Z,27.30
2022-08-01T21:26:16.507Z,27.20
2022-08-01T21:31:23.619Z,27.20
2022-08-01T21:36:30.458Z,27.10
2022-08-01T21:42:03.584Z,27.10
2022-08-01T21:47:05.099Z,27.10
2022-08-01T21:52:18.047Z,27.10
2022-08-01T21:57:28.783Z,27.10
2022-08-01T22:03:06.297Z,27.10
2022-08-01T22:08:13.643Z,27.10
2022-08-01T22:13:19.485Z,27.10
2022-08-01T22:18:25.970Z,27.10
2022-08-01T22:23:32.283Z,27.10
2022-08-01T22:28:39.507Z,27.20
2022-08-01T22:33:48.130Z,27.20
2022-08-01T22:38:54.120Z,27.20
2022-08-01T22:44:16.864Z,27.20
2022-08-01T22:49:37.811Z,27.20
2022-08-01T22:54:45.775Z,27.30
2022-08-01T23:00:17.840Z,27.30
2022-08-01T23:05:25.340Z,27.30
2022-08-01T23:10:31.061Z,27.30
2022-08-01T23:15:37.717Z,27.40
2022-08-01T23:20:44.171Z,27.60
2022-08-01T23:25:51.368Z,27.80
2022-08-01T23:30:58.043Z,28.10
2022-08-01T23:36:05.008Z,28.20
2022-08-01T23:41:16.584Z,28.20
2022-08-01T23:46:22.908Z,28.20
2022-08-01T23:51:29.233Z,28.20
2022-08-01T23:56:36.218Z,28.40
